Date,TemperatureHighF,TemperatureAvgF,TemperatureLowF,DewpointHighF,DewpointAvgF,DewpointLowF,HumidityHigh,HumidityAvg,HumidityLow,PressureMaxIn,PressureMinIn,WindSpeedMaxMPH,WindSpeedAvgMPH,GustSpeedMaxMPH,PrecipitationSumIn
2013-7-1,84,69,62,73,66,61,98,91,67,29.90,29.74,5,1,0,0.29
2013-7-2,80,67,64,74,66,63,98,96,81,30.07,29.88,6,2,0,3.07
2013-7-3,79,68,64,75,67,64,98,96,83,30.15,30.04,10,2,0,2.08
2013-7-4,84,70,64,76,68,64,98,94,77,30.18,30.11,9,2,0,0.42
2013-7-5,88,71,63,76,68,62,98,92,65,30.20,30.13,4,2,0,1.05
2013-7-6,90,71,65,75,68,64,98,90,61,30.17,30.06,5,2,0,0.17
2013-7-7,87,71,65,75,68,64,98,92,64,30.11,30.01,6,2,0,1.83
2013-7-8,95,73,62,76,67,61,98,85,44,30.12,30.03,6,1,0,0.00
2013-7-9,95,75,63,76,69,62,98,83,52,30.11,30.00,4,1,0,0.00
2013-7-10,94,72,64,79,69,64,98,90,55,30.03,29.88,5,1,0,0.91
2013-7-11,83,70,65,76,69,64,98,95,77,29.91,29.81,3,0,0,0.69
2013-7-12,86,69,62,74,66,61,98,91,62,29.96,29.82,5,1,0,0.74
2013-7-13,78,67,61,74,66,60,98,96,81,30.09,29.96,4,1,0,0.12
2013-7-14,89,72,66,75,69,66,98,90,59,30.25,30.06,6,2,0,2.08
2013-7-15,96,76,64,77,69,64,98,83,49,30.29,30.21,4,1,0,0.00
2013-7-16,101,77,59,78,68,58,98,80,43,30.28,30.17,3,0,0,0.00
2013-7-17,99,75,66,79,70,65,98,89,50,30.23,30.09,3,0,0,0.19
2013-7-18,99,77,63,80,70,62,98,82,49,30.15,30.02,4,1,0,0.00
2013-7-19,94,74,63,79,70,62,98,89,56,30.07,29.94,6,1,0,0.31
2013-7-20,94,75,66,76,70,65,98,86,54,29.96,29.85,6,1,0,0.00
2013-7-21,96,74,64,77,69,64,98,88,53,29.94,29.85,4,1,0,0.32
2013-7-22,91,73,65,76,69,64,98,90,58,29.90,29.75,5,1,0,0.11
2013-7-23,93,74,64,74,68,63,98,84,50,29.78,29.69,4,1,0,0.04
2013-7-24,91,74,64,75,68,63,98,83,53,29.81,29.71,4,1,0,0.00
2013-7-25,90,72,62,72,66,61,98,84,53,29.97,29.81,7,1,0,0.02
2013-7-26,87,70,58,73,65,57,98,87,60,30.04,29.94,5,1,0,0.91
2013-7-27,72,65,62,69,65,61,98,97,91,29.96,29.84,7,1,0,2.95
2013-7-28,91,70,60,74,65,59,98,86,49,29.95,29.84,5,1,0,0.03
2013-7-29,93,68,55,66,59,54,98,78,34,30.14,29.95,4,1,0,0.00
2013-7-30,87,67,53,69,60,52,98,82,52,30.16,30.08,3,1,0,0.00
2013-7-31,66,64,62,65,64,60,98,98,92,30.09,29.91,3,0,0,0.20